sensor_id;sensor_type;location;lat;lon;timestamp;temperature;humidity
23405;DHT22;11875;49.356;2.718;2022-08-24T00:01:14;24.40;99.80
23405;DHT22;11875;49.356;2.718;2022-08-24T00:03:42;24.40;99.90
23405;DHT22;11875;49.356;2.718;2022-08-24T00:06:10;24.50;99.90
23405;DHT22;11875;49.356;2.718;2022-08-24T00:08:37;24.50;99.90
23405;DHT22;11875;49.356;2.718;2022-08-24T00:11:04;24.60;99.90
23405;DHT22;11875;49.356;2.718;2022-08-24T00:13:29;24.60;99.90
23405;DHT22;11875;49.356;2.718;2022-08-24T00:15:55;24.60;99.90
23405;DHT22;11875;49.356;2.718;2022-08-24T00:18:21;24.60;99.90
23405;DHT22;11875;49.356;2.718;2022-08-24T00:20:47;24.60;99.90
23405;DHT22;11875;49.356;2.718;2022-08-24T00:23:14;24.60;99.90
23405;DHT22;11875;49.356;2.718;2022-08-24T00:25:39;24.60;99.90
23405;DHT22;11875;49.356;2.718;2022-08-24T00:28:05;24.50;99.90
23405;DHT22;11875;49.356;2.718;2022-08-24T00:30:32;24.50;99.90
23405;DHT22;11875;49.356;2.718;2022-08-24T00:32:58;24.50;99.90
23405;DHT22;11875;49.356;2.718;2022-08-24T00:35:24;24.40;99.90
23405;DHT22;11875;49.356;2.718;2022-08-24T00:37:51;24.40;99.90
23405;DHT22;11875;49.356;2.718;2022-08-24T00:40:29;24.30;99.90
23405;DHT22;11875;49.356;2.718;2022-08-24T00:42:59;24.30;99.90
23405;DHT22;11875;49.356;2.718;2022-08-24T00:45:33;24.20;99.90
23405;DHT22;11875;49.356;2.718;2022-08-24T00:48:04;24.20;99.90
23405;DHT22;11875;49.356;2.718;2022-08-24T00:50:44;24.30;99.90
23405;DHT22;11875;49.356;2.718;2022-08-24T00:53:17;24.20;99.90
23405;DHT22;11875;49.356;2.718;2022-08-24T00:55:49;24.20;99.90
23405;DHT22;11875;49.356;2.718;2022-08-24T00:58:38;24.10;99.90
23405;DHT22;11875;49.356;2.718;2022-08-24T01:01:07;24.20;99.90
23405;DHT22;11875;49.356;2.718;2022-08-24T01:03:34;24.20;99.90
23405;DHT22;11875;49.356;2.718;2022-08-24T01:06:00;24.10;99.90
23405;DHT22;11875;49.356;2.718;2022-08-24T01:08:26;24.10;99.90
23405;DHT22;11875;49.356;2.718;2022-08-24T01:11:12;24.00;99.90
23405;DHT22;11875;49.356;2.718;2022-08-24T01:13:42;24.10;99.90
23405;DHT22;11875;49.356;2.718;2022-08-24T01:16:10;24.00;99.90
23405;DHT22;11875;49.356;2.718;2022-08-24T01:18:38;24.00;99.90
23405;DHT22;11875;49.356;2.718;2022-08-24T01:21:29;24.00;99.90
23405;DHT22;11875;49.356;2.718;2022-08-24T01:24:02;24.00;99.90
23405;DHT22;11875;49.356;2.718;2022-08-24T01:26:38;23.90;99.90
23405;DHT22;11875;49.356;2.718;2022-08-24T01:29:11;23.80;99.90
23405;DHT22;11875;49.356;2.718;2022-08-24T01:31:38;23.90;99.90
23405;DHT22;11875;49.356;2.718;2022-08-24T01:34:03;23.90;99.90
23405;DHT22;11875;49.356;2.718;2022-08-24T01:36:51;23.80;99.90
23405;DHT22;11875;49.356;2.718;2022-08-24T01:39:23;23.80;99.90
23405;DHT22;11875;49.356;2.718;2022-08-24T01:41:50;23.80;99.90
23405;DHT22;11875;49.356;2.718;2022-08-24T01:44:17;23.80;99.90
23405;DHT22;11875;49.356;2.718;2022-08-24T01:46:47;23.80;99.90
23405;DHT22;11875;49.356;2.718;2022-08-24T01:49:14;23.80;99.90
23405;DHT22;11875;49.356;2.718;2022-08-24T01:51:41;23.80;99.90
23405;DHT22;11875;49.356;2.718;2022-08-24T01:54:07;23.70;99.90
23405;DHT22;11875;49.356;2.718;2022-08-24T01:56:34;23.70;99.90
23405;DHT22;11875;49.356;2.718;2022-08-24T01:59:01;23.70;99.90
23405;DHT22;11875;49.356;2.718;2022-08-24T02:01:28;23.60;99.90
23405;DHT22;11875;49.356;2.718;2022-08-24T02:03:56;23.60;99.90
23405;DHT22;11875;49.356;2.718;2022-08-24T02:06:22;23.60;99.90
23405;DHT22;11875;49.356;2.718;2022-08-24T02:08:48;23.60;99.90
23405;DHT22;11875;49.356;2.718;2022-08-24T02:11:14;23.60;99.90
23405;DHT22;11875;49.356;2.718;2022-08-24T02:13:40;23.50;99.90
23405;DHT22;11875;49.356;2.718;2022-08-24T02:16:07;23.50;99.90
23405;DHT22;11875;49.356;2.718;2022-08-24T02:18:34;23.40;99.90
23405;DHT22;11875;49.356;2.718;2022-08-24T02:21:00;23.30;99.90
23405;DHT22;11875;49.356;2.718;2022-08-24T02:23:26;23.30;99.90
23405;DHT22;11875;49.356;2.718;2022-08-24T02:25:53;23.30;99.90
23405;DHT22;11875;49.356;2.718;2022-08-24T02:28:19;23.20;99.90
23405;DHT22;11875;49.356;2.718;2022-08-24T02:30:45;23.20;99.90
23405;DHT22;11875;49.356;2.718;2022-08-24T02:33:11;23.10;99.90
23405;DHT22;11875;49.356;2.718;2022-08-24T02:35:37;23.10;99.90
23405;DHT22;11875;49.356;2.718;2022-08-24T02:38:03;23.00;99.90
23405;DHT22;11875;49.356;2.718;2022-08-24T02:40:29;23.00;99.90
23405;DHT22;11875;49.356;2.718;2022-08-24T02:42:55;22.90;99.90
23405;DHT22;11875;49.356;2.718;2022-08-24T02:45:21;22.90;99.90
23405;DHT22;11875;49.356;2.718;2022-08-24T02:47:47;22.90;99.90
23405;DHT22;11875;49.356;2.718;2022-08-24T02:50:15;22.80;99.90
23405;DHT22;11875;49.356;2.718;2022-08-24T02:52:42;22.80;99.90
23405;DHT22;11875;49.356;2.718;2022-08-24T02:55:11;22.80;99.90
23405;DHT22;11875;49.356;2.718;2022-08-24T02:57:37;22.80;99.90
23405;DHT22;11875;49.356;2.718;2022-08-24T03:00:06;22.70;99.90
23405;DHT22;11875;49.356;2.718;2022-08-24T03:02:33;22.70;99.90
23405;DHT22;11875;49.356;2.718;2022-08-24T03:04:59;22.70;99.90
23405;DHT22;11875;49.356;2.718;2022-08-24T03:07:24;22.70;99.90
23405;DHT22;11875;49.356;2.718;2022-08-24T03:09:50;22.70;99.90
23405;DHT22;11875;49.356;2.718;2022-08-24T03:12:15;22.70;99.90
23405;DHT22;11875;49.356;2.718;2022-08-24T03:14:42;22.70;99.90
23405;DHT22;11875;49.356;2.718;2022-08-24T03:17:08;22.60;99.90
23405;DHT22;11875;49.356;2.718;2022-08-24T03:19:34;22.60;99.90
23405;DHT22;11875;49.356;2.718;2022-08-24T03:22:00;22.60;99.90
23405;DHT22;11875;49.356;2.718;2022-08-24T03:24:26;22.60;99.90
23405;DHT22;11875;49.356;2.718;2022-08-24T03:26:51;22.60;99.90
23405;DHT22;11875;49.356;2.718;2022-08-24T03:29:17;22.50;99.90
23405;DHT22;11875;49.356;2.718;2022-08-24T03:31:43;22.40;99.90
23405;DHT22;11875;49.356;2.718;2022-08-24T03:34:09;22.30;99.90
23405;DHT22;11875;49.356;2.718;2022-08-24T03:36:41;22.20;99.90
23405;DHT22;11875;49.356;2.718;2022-08-24T03:39:11;22.20;99.90
23405;DHT22;11875;49.356;2.718;2022-08-24T03:41:37;22.20;99.90
23405;DHT22;11875;49.356;2.718;2022-08-24T03:44:03;22.20;99.90
23405;DHT22;11875;49.356;2.718;2022-08-24T03:46:33;22.30;99.90
23405;DHT22;11875;49.356;2.718;2022-08-24T03:49:01;22.20;99.90
23405;DHT22;11875;49.356;2.718;2022-08-24T03:51:28;22.20;99.90
23405;DHT22;11875;49.356;2.718;2022-08-24T03:53:57;22.20;99.90
23405;DHT22;11875;49.356;2.718;2022-08-24T03:56:24;22.20;99.90
23405;DHT22;11875;49.356;2.718;2022-08-24T03:58:50;22.20;99.90
23405;DHT22;11875;49.356;2.718;2022-08-24T04:01:16;22.20;99.90
23405;DHT22;11875;49.356;2.718;2022-08-24T04:03:44;22.20;99.90
23405;DHT22;11875;49.356;2.718;2022-08-24T04:06:12;22.10;99.90
23405;DHT22;11875;49.356;2.718;2022-08-24T04:08:39;22.10;99.90
23405;DHT22;11875;49.356;2.718;2022-08-24T04:11:10;22.20;99.90
23405;DHT22;11875;49.356;2.718;2022-08-24T04:13:35;22.20;99.90
23405;DHT22;11875;49.356;2.718;2022-08-24T04:16:09;22.10;99.90
23405;DHT22;11875;49.356;2.718;2022-08-24T04:18:37;22.10;99.90
23405;DHT22;11875;49.356;2.718;2022-08-24T04:21:02;22.10;99.90
23405;DHT22;11875;49.356;2.718;2022-08-24T04:23:29;22.00;99.90
23405;DHT22;11875;49.356;2.718;2022-08-24T04:25:54;22.00;99.90
23405;DHT22;11875;49.356;2.718;2022-08-24T04:28:20;22.00;99.90
23405;DHT22;11875;49.356;2.718;2022-08-24T04:30:48;22.00;99.90
23405;DHT22;11875;49.356;2.718;2022-08-24T04:33:15;22.00;99.90
23405;DHT22;11875;49.356;2.718;2022-08-24T04:35:44;22.00;99.90
23405;DHT22;11875;49.356;2.718;2022-08-24T04:38:12;21.90;99.90
23405;DHT22;11875;49.356;2.718;2022-08-24T04:40:40;21.90;99.90
23405;DHT22;11875;49.356;2.718;2022-08-24T04:43:06;21.90;99.90
23405;DHT22;11875;49.356;2.718;2022-08-24T04:45:32;21.80;99.90
23405;DHT22;11875;49.356;2.718;2022-08-24T04:47:58;21.80;99.90
23405;DHT22;11875;49.356;2.718;2022-08-24T04:50:24;21.70;99.90
23405;DHT22;11875;49.356;2.718;2022-08-24T04:52:50;21.70;99.90
23405;DHT22;11875;49.356;2.718;2022-08-24T04:55:16;21.70;99.90
23405;DHT22;11875;49.356;2.718;2022-08-24T04:57:42;21.70;99.90
23405;DHT22;11875;49.356;2.718;2022-08-24T05:00:08;21.60;99.90
23405;DHT22;11875;49.356;2.718;2022-08-24T05:02:36;21.50;99.90
23405;DHT22;11875;49.356;2.718;2022-08-24T05:05:04;21.50;99.90
23405;DHT22;11875;49.356;2.718;2022-08-24T05:07:29;21.50;99.90
23405;DHT22;11875;49.356;2.718;2022-08-24T05:09:55;21.60;99.90
23405;DHT22;11875;49.356;2.718;2022-08-24T05:12:20;21.50;99.90
23405;DHT22;11875;49.356;2.718;2022-08-24T05:14:46;21.50;99.90
23405;DHT22;11875;49.356;2.718;2022-08-24T05:17:12;21.60;99.90
23405;DHT22;11875;49.356;2.718;2022-08-24T05:19:37;21.60;99.90
23405;DHT22;11875;49.356;2.718;2022-08-24T05:22:03;21.60;99.90
23405;DHT22;11875;49.356;2.718;2022-08-24T05:24:29;21.60;99.90
23405;DHT22;11875;49.356;2.718;2022-08-24T05:26:55;21.60;99.90
23405;DHT22;11875;49.356;2.718;2022-08-24T05:29:20;21.60;99.90
23405;DHT22;11875;49.356;2.718;2022-08-24T05:31:47;21.70;99.90
23405;DHT22;11875;49.356;2.718;2022-08-24T05:34:13;21.60;99.90
23405;DHT22;11875;49.356;2.718;2022-08-24T05:36:39;21.60;99.90
23405;DHT22;11875;49.356;2.718;2022-08-24T05:39:09;21.60;99.90
23405;DHT22;11875;49.356;2.718;2022-08-24T05:41:35;21.60;99.90
23405;DHT22;11875;49.356;2.718;2022-08-24T05:44:01;21.60;99.90
23405;DHT22;11875;49.356;2.718;2022-08-24T05:46:27;21.60;99.90
23405;DHT22;11875;49.356;2.718;2022-08-24T05:48:53;21.70;99.90
23405;DHT22;11875;49.356;2.718;2022-08-24T05:51:19;21.70;99.90
23405;DHT22;11875;49.356;2.718;2022-08-24T05:53:45;21.70;99.90
23405;DHT22;11875;49.356;2.718;2022-08-24T05:56:13;21.70;99.90
23405;DHT22;11875;49.356;2.718;2022-08-24T05:58:39;21.70;99.90
23405;DHT22;11875;49.356;2.718;2022-08-24T06:01:11;21.70;99.90
23405;DHT22;11875;49.356;2.718;2022-08-24T06:03:38;21.80;99.90
23405;DHT22;11875;49.356;2.718;2022-08-24T06:06:04;21.80;99.90
23405;DHT22;11875;49.356;2.718;2022-08-24T06:08:32;21.80;99.90
23405;DHT22;11875;49.356;2.718;2022-08-24T06:10:58;21.90;99.90
23405;DHT22;11875;49.356;2.718;2022-08-24T06:13:26;21.80;99.90
23405;DHT22;11875;49.356;2.718;2022-08-24T06:16:05;21.80;99.90
23405;DHT22;11875;49.356;2.718;2022-08-24T06:18:31;21.80;99.90
23405;DHT22;11875;49.356;2.718;2022-08-24T06:20:57;21.80;99.90
23405;DHT22;11875;49.356;2.718;2022-08-24T06:23:23;21.90;99.90
23405;DHT22;11875;49.356;2.718;2022-08-24T06:25:49;21.90;99.90
23405;DHT22;11875;49.356;2.718;2022-08-24T06:28:33;21.90;99.90
23405;DHT22;11875;49.356;2.718;2022-08-24T06:31:06;21.90;99.90
23405;DHT22;11875;49.356;2.718;2022-08-24T06:33:32;22.00;99.90
23405;DHT22;11875;49.356;2.718;2022-08-24T06:35:58;21.90;99.90
23405;DHT22;11875;49.356;2.718;2022-08-24T06:38:24;22.00;99.90
23405;DHT22;11875;49.356;2.718;2022-08-24T06:40:49;21.90;99.90
23405;DHT22;11875;49.356;2.718;2022-08-24T06:43:15;21.90;99.90
23405;DHT22;11875;49.356;2.718;2022-08-24T06:45:42;22.00;99.90
23405;DHT22;11875;49.356;2.718;2022-08-24T06:48:07;22.10;99.90
23405;DHT22;11875;49.356;2.718;2022-08-24T06:50:33;22.10;99.90
23405;DHT22;11875;49.356;2.718;2022-08-24T06:52:59;22.20;99.90
23405;DHT22;11875;49.356;2.718;2022-08-24T06:55:26;22.30;99.90
23405;DHT22;11875;49.356;2.718;2022-08-24T06:57:52;22.30;99.90
23405;DHT22;11875;49.356;2.718;2022-08-24T07:00:18;22.40;99.90
23405;DHT22;11875;49.356;2.718;2022-08-24T07:02:44;22.40;99.90
23405;DHT22;11875;49.356;2.718;2022-08-24T07:05:10;22.60;99.90
23405;DHT22;11875;49.356;2.718;2022-08-24T07:07:36;22.60;99.90
23405;DHT22;11875;49.356;2.718;2022-08-24T07:10:02;22.60;99.90
23405;DHT22;11875;49.356;2.718;2022-08-24T07:12:28;22.60;99.90
23405;DHT22;11875;49.356;2.718;2022-08-24T07:14:54;22.50;99.90
23405;DHT22;11875;49.356;2.718;2022-08-24T07:17:20;22.60;99.90
23405;DHT22;11875;49.356;2.718;2022-08-24T07:19:45;22.70;99.90
23405;DHT22;11875;49.356;2.718;2022-08-24T07:22:11;22.80;99.90
23405;DHT22;11875;49.356;2.718;2022-08-24T07:24:38;22.90;99.90
23405;DHT22;11875;49.356;2.718;2022-08-24T07:27:04;22.90;99.90
23405;DHT22;11875;49.356;2.718;2022-08-24T07:29:31;23.00;99.90
23405;DHT22;11875;49.356;2.718;2022-08-24T07:31:57;23.20;99.90
23405;DHT22;11875;49.356;2.718;2022-08-24T07:34:23;23.20;99.90
23405;DHT22;11875;49.356;2.718;2022-08-24T07:36:49;23.20;99.90
23405;DHT22;11875;49.356;2.718;2022-08-24T07:39:16;23.40;99.90
23405;DHT22;11875;49.356;2.718;2022-08-24T07:41:43;23.50;99.90
23405;DHT22;11875;49.356;2.718;2022-08-24T07:44:10;23.60;99.90
23405;DHT22;11875;49.356;2.718;2022-08-24T07:46:38;23.80;99.90
23405;DHT22;11875;49.356;2.718;2022-08-24T07:49:05;24.20;99.90
23405;DHT22;11875;49.356;2.718;2022-08-24T07:51:31;24.70;99.90
23405;DHT22;11875;49.356;2.718;2022-08-24T07:53:57;25.20;99.90
23405;DHT22;11875;49.356;2.718;2022-08-24T07:56:23;25.60;99.90
23405;DHT22;11875;49.356;2.718;2022-08-24T07:58:49;26.20;99.90
23405;DHT22;11875;49.356;2.718;2022-08-24T08:01:15;26.30;99.90
23405;DHT22;11875;49.356;2.718;2022-08-24T08:03:42;26.30;99.90
23405;DHT22;11875;49.356;2.718;2022-08-24T08:06:08;26.20;99.90
23405;DHT22;11875;49.356;2.718;2022-08-24T08:08:36;26.20;99.90
23405;DHT22;11875;49.356;2.718;2022-08-24T08:11:03;26.40;99.90
23405;DHT22;11875;49.356;2.718;2022-08-24T08:13:29;26.50;99.90
23405;DHT22;11875;49.356;2.718;2022-08-24T08:15:56;26.70;99.90
23405;DHT22;11875;49.356;2.718;2022-08-24T08:18:22;27.00;99.90
23405;DHT22;11875;49.356;2.718;2022-08-24T08:20:48;27.20;99.90
23405;DHT22;11875;49.356;2.718;2022-08-24T08:23:14;27.40;99.90
23405;DHT22;11875;49.356;2.718;2022-08-24T08:25:58;27.60;99.80
23405;DHT22;11875;49.356;2.718;2022-08-24T08:28:28;27.80;99.30
23405;DHT22;11875;49.356;2.718;2022-08-24T08:30:58;28.00;99.20
23405;DHT22;11875;49.356;2.718;2022-08-24T08:33:24;28.30;98.80
23405;DHT22;11875;49.356;2.718;2022-08-24T08:35:52;28.40;98.60
23405;DHT22;11875;49.356;2.718;2022-08-24T08:38:20;28.50;98.10
23405;DHT22;11875;49.356;2.718;2022-08-24T08:43:49;28.80;97.00
23405;DHT22;11875;49.356;2.718;2022-08-24T08:54:35;29.30;96.50
23405;DHT22;11875;49.356;2.718;2022-08-24T09:00:19;29.60;95.90
23405;DHT22;11875;49.356;2.718;2022-08-24T09:05:54;29.90;94.80
23405;DHT22;11875;49.356;2.718;2022-08-24T09:08:38;29.80;94.90
23405;DHT22;11875;49.356;2.718;2022-08-24T09:17:03;29.50;94.40
23405;DHT22;11875;49.356;2.718;2022-08-24T09:22:18;29.50;94.10
23405;DHT22;11875;49.356;2.718;2022-08-24T09:30:59;29.80;94.40
23405;DHT22;11875;49.356;2.718;2022-08-24T09:33:35;30.00;93.80
23405;DHT22;11875;49.356;2.718;2022-08-24T10:00:46;30.70;91.40
23405;DHT22;11875;49.356;2.718;2022-08-24T10:15:09;31.20;90.60
23405;DHT22;11875;49.356;2.718;2022-08-24T10:20:23;31.40;90.00
23405;DHT22;11875;49.356;2.718;2022-08-24T10:30:44;31.30;89.20
23405;DHT22;11875;49.356;2.718;2022-08-24T10:33:22;31.30;88.80
23405;DHT22;11875;49.356;2.718;2022-08-24T10:38:31;31.50;87.60
23405;DHT22;11875;49.356;2.718;2022-08-24T10:44:42;31.60;87.70
23405;DHT22;11875;49.356;2.718;2022-08-24T10:50:15;32.00;86.20
23405;DHT22;11875;49.356;2.718;2022-08-24T10:55:32;32.20;86.10
23405;DHT22;11875;49.356;2.718;2022-08-24T11:01:35;32.50;84.60
23405;DHT22;11875;49.356;2.718;2022-08-24T11:04:08;32.40;84.00
23405;DHT22;11875;49.356;2.718;2022-08-24T11:06:43;32.30;84.40
23405;DHT22;11875;49.356;2.718;2022-08-24T11:09:54;32.30;83.80
23405;DHT22;11875;49.356;2.718;2022-08-24T11:12:34;32.40;83.50
23405;DHT22;11875;49.356;2.718;2022-08-24T11:15:18;32.10;82.90
23405;DHT22;11875;49.356;2.718;2022-08-24T11:17:55;32.20;83.80
23405;DHT22;11875;49.356;2.718;2022-08-24T11:20:40;32.30;83.90
23405;DHT22;11875;49.356;2.718;2022-08-24T11:23:09;32.50;83.30
23405;DHT22;11875;49.356;2.718;2022-08-24T11:25:41;32.70;82.70
23405;DHT22;11875;49.356;2.718;2022-08-24T11:28:32;32.90;82.30
23405;DHT22;11875;49.356;2.718;2022-08-24T11:31:01;32.90;81.80
23405;DHT22;11875;49.356;2.718;2022-08-24T11:33:46;32.70;80.40
23405;DHT22;11875;49.356;2.718;2022-08-24T11:36:18;32.90;81.20
23405;DHT22;11875;49.356;2.718;2022-08-24T11:38:44;33.00;81.20
23405;DHT22;11875;49.356;2.718;2022-08-24T11:41:25;33.00;81.20
23405;DHT22;11875;49.356;2.718;2022-08-24T11:44:07;33.10;81.00
23405;DHT22;11875;49.356;2.718;2022-08-24T11:46:41;33.20;80.70
23405;DHT22;11875;49.356;2.718;2022-08-24T11:52:10;33.20;79.20
23405;DHT22;11875;49.356;2.718;2022-08-24T11:54:57;33.20;79.40
23405;DHT22;11875;49.356;2.718;2022-08-24T11:57:39;33.10;79.40
23405;DHT22;11875;49.356;2.718;2022-08-24T12:00:16;33.30;79.60
23405;DHT22;11875;49.356;2.718;2022-08-24T12:03:05;33.50;79.20
23405;DHT22;11875;49.356;2.718;2022-08-24T12:11:29;33.80;76.90
23405;DHT22;11875;49.356;2.718;2022-08-24T12:19:23;33.70;77.70
23405;DHT22;11875;49.356;2.718;2022-08-24T12:21:54;33.70;76.90
23405;DHT22;11875;49.356;2.718;2022-08-24T12:27:01;33.80;77.80
23405;DHT22;11875;49.356;2.718;2022-08-24T12:29:40;34.10;77.20
23405;DHT22;11875;49.356;2.718;2022-08-24T12:32:11;34.20;76.60
23405;DHT22;11875;49.356;2.718;2022-08-24T12:40:10;34.80;75.10
23405;DHT22;11875;49.356;2.718;2022-08-24T12:42:53;34.70;76.60
23405;DHT22;11875;49.356;2.718;2022-08-24T12:45:22;34.70;75.60
23405;DHT22;11875;49.356;2.718;2022-08-24T12:48:10;34.70;74.60
23405;DHT22;11875;49.356;2.718;2022-08-24T13:01:04;34.70;74.20
23405;DHT22;11875;49.356;2.718;2022-08-24T13:03:33;34.80;74.40
23405;DHT22;11875;49.356;2.718;2022-08-24T13:06:38;34.90;74.40
23405;DHT22;11875;49.356;2.718;2022-08-24T13:09:07;35.10;74.50
23405;DHT22;11875;49.356;2.718;2022-08-24T13:11:35;35.30;73.50
23405;DHT22;11875;49.356;2.718;2022-08-24T13:14:26;35.40;73.50
23405;DHT22;11875;49.356;2.718;2022-08-24T13:34:56;34.70;72.30
23405;DHT22;11875;49.356;2.718;2022-08-24T13:37:24;34.70;72.50
23405;DHT22;11875;49.356;2.718;2022-08-24T13:43:08;35.10;72.10
23405;DHT22;11875;49.356;2.718;2022-08-24T13:48:31;35.30;71.80
23405;DHT22;11875;49.356;2.718;2022-08-24T13:51:28;35.30;71.00
23405;DHT22;11875;49.356;2.718;2022-08-24T13:59:33;35.10;71.30
23405;DHT22;11875;49.356;2.718;2022-08-24T14:04:36;35.20;71.00
23405;DHT22;11875;49.356;2.718;2022-08-24T14:07:21;35.30;71.80
23405;DHT22;11875;49.356;2.718;2022-08-24T14:10:10;35.50;70.70
23405;DHT22;11875;49.356;2.718;2022-08-24T14:15:22;35.70;70.00
23405;DHT22;11875;49.356;2.718;2022-08-24T14:18:11;35.70;69.80
23405;DHT22;11875;49.356;2.718;2022-08-24T14:20:49;35.90;69.10
23405;DHT22;11875;49.356;2.718;2022-08-24T14:23:37;35.90;68.80
23405;DHT22;11875;49.356;2.718;2022-08-24T14:39:53;36.50;67.30
23405;DHT22;11875;49.356;2.718;2022-08-24T14:42:35;36.60;67.40
23405;DHT22;11875;49.356;2.718;2022-08-24T14:45:49;36.70;66.70
23405;DHT22;11875;49.356;2.718;2022-08-24T14:48:31;36.70;67.20
23405;DHT22;11875;49.356;2.718;2022-08-24T15:02:42;35.00;68.70
23405;DHT22;11875;49.356;2.718;2022-08-24T15:08:11;35.10;67.10
23405;DHT22;11875;49.356;2.718;2022-08-24T15:10:54;35.30;67.50
23405;DHT22;11875;49.356;2.718;2022-08-24T15:13:36;35.60;67.30
23405;DHT22;11875;49.356;2.718;2022-08-24T15:16:10;35.80;65.80
23405;DHT22;11875;49.356;2.718;2022-08-24T15:24:07;36.00;64.70
23405;DHT22;11875;49.356;2.718;2022-08-24T15:29:33;36.00;64.50
23405;DHT22;11875;49.356;2.718;2022-08-24T15:32:06;35.90;64.70
23405;DHT22;11875;49.356;2.718;2022-08-24T15:34:53;36.00;64.40
23405;DHT22;11875;49.356;2.718;2022-08-24T15:37:32;35.90;63.80
23405;DHT22;11875;49.356;2.718;2022-08-24T15:39:59;35.90;63.50
23405;DHT22;11875;49.356;2.718;2022-08-24T15:42:27;35.80;63.30
23405;DHT22;11875;49.356;2.718;2022-08-24T15:44:59;35.90;64.00
23405;DHT22;11875;49.356;2.718;2022-08-24T15:47:32;36.20;63.70
23405;DHT22;11875;49.356;2.718;2022-08-24T15:50:03;36.20;63.10
23405;DHT22;11875;49.356;2.718;2022-08-24T15:53:06;36.40;63.00
23405;DHT22;11875;49.356;2.718;2022-08-24T15:55:51;36.40;62.50
23405;DHT22;11875;49.356;2.718;2022-08-24T15:58:41;36.40;62.90
23405;DHT22;11875;49.356;2.718;2022-08-24T16:14:39;36.40;62.40
23405;DHT22;11875;49.356;2.718;2022-08-24T16:17:35;36.40;61.40
23405;DHT22;11875;49.356;2.718;2022-08-24T16:20:06;36.20;61.70
23405;DHT22;11875;49.356;2.718;2022-08-24T16:22:38;35.90;62.30
23405;DHT22;11875;49.356;2.718;2022-08-24T16:25:21;35.60;63.80
23405;DHT22;11875;49.356;2.718;2022-08-24T16:27:54;35.40;63.30
23405;DHT22;11875;49.356;2.718;2022-08-24T16:30:42;35.20;63.20
23405;DHT22;11875;49.356;2.718;2022-08-24T16:33:09;35.20;63.50
23405;DHT22;11875;49.356;2.718;2022-08-24T16:35:35;35.20;62.90
23405;DHT22;11875;49.356;2.718;2022-08-24T16:38:01;35.10;63.10
23405;DHT22;11875;49.356;2.718;2022-08-24T16:40:28;34.90;63.40
23405;DHT22;11875;49.356;2.718;2022-08-24T16:42:55;34.70;63.40
23405;DHT22;11875;49.356;2.718;2022-08-24T16:45:22;34.90;63.80
23405;DHT22;11875;49.356;2.718;2022-08-24T16:47:48;35.10;64.80
23405;DHT22;11875;49.356;2.718;2022-08-24T16:50:16;35.10;64.30
23405;DHT22;11875;49.356;2.718;2022-08-24T16:52:42;34.90;65.20
23405;DHT22;11875;49.356;2.718;2022-08-24T16:55:09;34.90;64.60
23405;DHT22;11875;49.356;2.718;2022-08-24T16:57:36;35.00;64.70
23405;DHT22;11875;49.356;2.718;2022-08-24T17:00:05;35.10;65.50
23405;DHT22;11875;49.356;2.718;2022-08-24T17:02:32;35.00;63.40
23405;DHT22;11875;49.356;2.718;2022-08-24T17:04:57;34.90;64.10
23405;DHT22;11875;49.356;2.718;2022-08-24T17:07:25;34.80;63.60
23405;DHT22;11875;49.356;2.718;2022-08-24T17:09:53;34.60;63.20
23405;DHT22;11875;49.356;2.718;2022-08-24T17:12:19;34.40;63.30
23405;DHT22;11875;49.356;2.718;2022-08-24T17:14:45;34.40;63.80
23405;DHT22;11875;49.356;2.718;2022-08-24T17:17:14;34.30;63.90
23405;DHT22;11875;49.356;2.718;2022-08-24T17:19:41;34.30;64.30
23405;DHT22;11875;49.356;2.718;2022-08-24T17:22:09;34.30;64.40
23405;DHT22;11875;49.356;2.718;2022-08-24T17:24:35;34.20;64.20
23405;DHT22;11875;49.356;2.718;2022-08-24T17:27:01;34.10;64.70
23405;DHT22;11875;49.356;2.718;2022-08-24T17:29:27;34.00;64.30
23405;DHT22;11875;49.356;2.718;2022-08-24T17:31:53;34.00;65.10
23405;DHT22;11875;49.356;2.718;2022-08-24T17:34:20;34.00;64.50
23405;DHT22;11875;49.356;2.718;2022-08-24T17:36:49;34.00;64.90
23405;DHT22;11875;49.356;2.718;2022-08-24T17:39:16;34.20;65.10
23405;DHT22;11875;49.356;2.718;2022-08-24T17:41:41;34.20;67.70
23405;DHT22;11875;49.356;2.718;2022-08-24T17:44:09;34.30;67.10
23405;DHT22;11875;49.356;2.718;2022-08-24T17:46:35;34.10;66.10
23405;DHT22;11875;49.356;2.718;2022-08-24T17:49:02;34.00;64.90
23405;DHT22;11875;49.356;2.718;2022-08-24T17:51:27;33.90;64.60
23405;DHT22;11875;49.356;2.718;2022-08-24T17:53:53;33.80;65.20
23405;DHT22;11875;49.356;2.718;2022-08-24T17:56:18;33.70;65.90
23405;DHT22;11875;49.356;2.718;2022-08-24T17:58:44;33.80;67.10
23405;DHT22;11875;49.356;2.718;2022-08-24T18:01:29;33.90;68.20
23405;DHT22;11875;49.356;2.718;2022-08-24T18:03:55;34.00;69.60
23405;DHT22;11875;49.356;2.718;2022-08-24T18:06:22;34.00;70.50
23405;DHT22;11875;49.356;2.718;2022-08-24T18:08:49;33.80;70.40
23405;DHT22;11875;49.356;2.718;2022-08-24T18:11:15;34.10;71.00
23405;DHT22;11875;49.356;2.718;2022-08-24T18:13:40;33.70;71.00
23405;DHT22;11875;49.356;2.718;2022-08-24T18:16:18;33.50;70.40
23405;DHT22;11875;49.356;2.718;2022-08-24T18:18:46;33.40;70.90
23405;DHT22;11875;49.356;2.718;2022-08-24T18:21:14;33.30;71.50
23405;DHT22;11875;49.356;2.718;2022-08-24T18:23:39;33.30;71.50
23405;DHT22;11875;49.356;2.718;2022-08-24T18:26:05;33.20;72.00
23405;DHT22;11875;49.356;2.718;2022-08-24T18:28:32;33.20;71.50
23405;DHT22;11875;49.356;2.718;2022-08-24T18:30:57;33.10;72.20
23405;DHT22;11875;49.356;2.718;2022-08-24T18:33:23;33.10;72.20
23405;DHT22;11875;49.356;2.718;2022-08-24T18:35:49;32.80;71.70
23405;DHT22;11875;49.356;2.718;2022-08-24T18:38:15;32.70;71.50
23405;DHT22;11875;49.356;2.718;2022-08-24T18:40:41;32.60;71.40
23405;DHT22;11875;49.356;2.718;2022-08-24T18:43:07;32.60;72.10
23405;DHT22;11875;49.356;2.718;2022-08-24T18:45:33;32.60;72.20
23405;DHT22;11875;49.356;2.718;2022-08-24T18:47:59;32.50;72.20
23405;DHT22;11875;49.356;2.718;2022-08-24T18:50:26;32.40;72.20
23405;DHT22;11875;49.356;2.718;2022-08-24T18:52:56;32.40;72.00
23405;DHT22;11875;49.356;2.718;2022-08-24T18:55:23;32.30;71.90
23405;DHT22;11875;49.356;2.718;2022-08-24T18:57:49;32.20;71.70
23405;DHT22;11875;49.356;2.718;2022-08-24T19:00:15;32.20;71.30
23405;DHT22;11875;49.356;2.718;2022-08-24T19:02:40;32.20;71.20
23405;DHT22;11875;49.356;2.718;2022-08-24T19:05:18;32.10;71.80
23405;DHT22;11875;49.356;2.718;2022-08-24T19:07:47;32.00;71.80
23405;DHT22;11875;49.356;2.718;2022-08-24T19:10:22;31.90;73.40
23405;DHT22;11875;49.356;2.718;2022-08-24T19:12:55;31.90;73.30
23405;DHT22;11875;49.356;2.718;2022-08-24T19:15:21;31.80;73.80
23405;DHT22;11875;49.356;2.718;2022-08-24T19:17:47;31.60;73.90
23405;DHT22;11875;49.356;2.718;2022-08-24T19:20:13;31.60;74.90